sensor_id;sensor_type;location;lat;lon;timestamp;P1;durP1;ratioP1;P2;durP2;ratioP2
53835;SDS011;39737;43.334;21.936;2023-10-19T00:01:42;0.80;;;0.80;;
53835;SDS011;39737;43.334;21.936;2023-10-19T00:04:28;9.93;;;5.35;;
53835;SDS011;39737;43.334;21.936;2023-10-19T00:07:20;0.67;;;0.67;;
53835;SDS011;39737;43.334;21.936;2023-10-19T00:10:07;0.40;;;0.40;;
53835;SDS011;39737;43.334;21.936;2023-10-19T00:12:53;4.18;;;1.40;;
53835;SDS011;39737;43.334;21.936;2023-10-19T00:15:46;0.47;;;0.47;;
53835;SDS011;39737;43.334;21.936;2023-10-19T00:18:39;0.88;;;0.88;;
53835;SDS011;39737;43.334;21.936;2023-10-19T00:21:29;1.42;;;1.33;;
53835;SDS011;39737;43.334;21.936;2023-10-19T00:24:17;1.63;;;1.52;;
53835;SDS011;39737;43.334;21.936;2023-10-19T00:27:05;1.02;;;0.93;;
53835;SDS011;39737;43.334;21.936;2023-10-19T00:30:09;0.63;;;0.63;;
53835;SDS011;39737;43.334;21.936;2023-10-19T00:32:56;0.88;;;0.88;;
53835;SDS011;39737;43.334;21.936;2023-10-19T00:35:43;0.55;;;0.55;;
53835;SDS011;39737;43.334;21.936;2023-10-19T00:38:49;0.75;;;0.75;;
53835;SDS011;39737;43.334;21.936;2023-10-19T00:41:36;2.83;;;1.67;;
53835;SDS011;39737;43.334;21.936;2023-10-19T00:44:23;0.40;;;0.40;;
53835;SDS011;39737;43.334;21.936;2023-10-19T00:47:25;0.88;;;0.88;;
53835;SDS011;39737;43.334;21.936;2023-10-19T00:50:16;0.85;;;0.85;;
53835;SDS011;39737;43.334;21.936;2023-10-19T00:53:08;8.27;;;4.22;;
53835;SDS011;39737;43.334;21.936;2023-10-19T00:55:58;8.30;;;4.10;;
53835;SDS011;39737;43.334;21.936;2023-10-19T00:58:46;0.75;;;0.60;;
53835;SDS011;39737;43.334;21.936;2023-10-19T01:01:39;2.63;;;1.42;;
53835;SDS011;39737;43.334;21.936;2023-10-19T01:04:34;1.20;;;1.10;;
53835;SDS011;39737;43.334;21.936;2023-10-19T01:07:20;0.85;;;0.68;;
53835;SDS011;39737;43.334;21.936;2023-10-19T01:10:09;0.65;;;0.65;;
53835;SDS011;39737;43.334;21.936;2023-10-19T01:12:59;1.13;;;1.13;;
53835;SDS011;39737;43.334;21.936;2023-10-19T01:15:45;0.50;;;0.50;;
53835;SDS011;39737;43.334;21.936;2023-10-19T01:18:35;0.63;;;0.63;;
53835;SDS011;39737;43.334;21.936;2023-10-19T01:21:22;0.52;;;0.52;;
53835;SDS011;39737;43.334;21.936;2023-10-19T01:24:13;2.58;;;1.35;;
53835;SDS011;39737;43.334;21.936;2023-10-19T01:27:03;0.95;;;0.75;;
53835;SDS011;39737;43.334;21.936;2023-10-19T01:29:54;0.98;;;0.88;;
53835;SDS011;39737;43.334;21.936;2023-10-19T01:32:46;1.52;;;1.42;;
53835;SDS011;39737;43.334;21.936;2023-10-19T01:35:32;1.27;;;1.27;;
53835;SDS011;39737;43.334;21.936;2023-10-19T01:38:40;0.40;;;0.40;;
53835;SDS011;39737;43.334;21.936;2023-10-19T01:41:27;0.40;;;0.40;;
53835;SDS011;39737;43.334;21.936;2023-10-19T01:44:16;1.85;;;0.82;;
53835;SDS011;39737;43.334;21.936;2023-10-19T01:47:06;2.50;;;1.17;;
53835;SDS011;39737;43.334;21.936;2023-10-19T01:49:53;0.40;;;0.40;;
53835;SDS011;39737;43.334;21.936;2023-10-19T01:52:39;1.55;;;1.45;;
53835;SDS011;39737;43.334;21.936;2023-10-19T01:55:25;0.57;;;0.57;;
53835;SDS011;39737;43.334;21.936;2023-10-19T01:58:13;3.45;;;2.15;;
53835;SDS011;39737;43.334;21.936;2023-10-19T02:01:01;0.50;;;0.50;;
53835;SDS011;39737;43.334;21.936;2023-10-19T02:03:48;1.48;;;0.80;;
53835;SDS011;39737;43.334;21.936;2023-10-19T02:06:42;0.93;;;0.93;;
53835;SDS011;39737;43.334;21.936;2023-10-19T02:09:32;0.90;;;0.90;;
53835;SDS011;39737;43.334;21.936;2023-10-19T02:12:19;0.57;;;0.57;;
53835;SDS011;39737;43.334;21.936;2023-10-19T02:15:06;1.10;;;0.80;;
53835;SDS011;39737;43.334;21.936;2023-10-19T02:17:52;0.75;;;0.75;;
53835;SDS011;39737;43.334;21.936;2023-10-19T02:20:40;0.47;;;0.47;;
53835;SDS011;39737;43.334;21.936;2023-10-19T02:23:28;1.55;;;0.93;;
53835;SDS011;39737;43.334;21.936;2023-10-19T02:26:14;2.15;;;1.95;;
53835;SDS011;39737;43.334;21.936;2023-10-19T02:29:01;3.63;;;1.23;;
53835;SDS011;39737;43.334;21.936;2023-10-19T02:31:53;0.60;;;0.60;;
53835;SDS011;39737;43.334;21.936;2023-10-19T02:34:41;0.90;;;0.70;;
53835;SDS011;39737;43.334;21.936;2023-10-19T02:37:27;1.45;;;1.35;;
53835;SDS011;39737;43.334;21.936;2023-10-19T02:40:13;1.80;;;1.70;;
53835;SDS011;39737;43.334;21.936;2023-10-19T02:43:06;0.88;;;0.88;;
53835;SDS011;39737;43.334;21.936;2023-10-19T02:45:52;2.10;;;1.25;;
53835;SDS011;39737;43.334;21.936;2023-10-19T02:48:39;0.52;;;0.52;;
53835;SDS011;39737;43.334;21.936;2023-10-19T02:51:35;3.35;;;1.58;;
53835;SDS011;39737;43.334;21.936;2023-10-19T02:54:23;0.40;;;0.40;;
53835;SDS011;39737;43.334;21.936;2023-10-19T02:57:10;0.32;;;0.32;;
53835;SDS011;39737;43.334;21.936;2023-10-19T02:59:59;0.35;;;0.35;;
53835;SDS011;39737;43.334;21.936;2023-10-19T03:02:50;1.30;;;1.20;;
53835;SDS011;39737;43.334;21.936;2023-10-19T03:05:38;0.40;;;0.40;;
53835;SDS011;39737;43.334;21.936;2023-10-19T03:08:25;3.83;;;2.05;;
53835;SDS011;39737;43.334;21.936;2023-10-19T03:11:12;2.92;;;2.10;;
53835;SDS011;39737;43.334;21.936;2023-10-19T03:14:00;0.80;;;0.80;;
53835;SDS011;39737;43.334;21.936;2023-10-19T03:16:47;3.00;;;2.75;;
53835;SDS011;39737;43.334;21.936;2023-10-19T03:19:33;1.38;;;1.27;;
53835;SDS011;39737;43.334;21.936;2023-10-19T03:22:20;2.33;;;1.25;;
53835;SDS011;39737;43.334;21.936;2023-10-19T03:25:07;0.50;;;0.50;;
53835;SDS011;39737;43.334;21.936;2023-10-19T03:28:11;0.57;;;0.57;;
53835;SDS011;39737;43.334;21.936;2023-10-19T03:30:58;0.80;;;0.80;;
53835;SDS011;39737;43.334;21.936;2023-10-19T03:33:46;0.65;;;0.50;;
53835;SDS011;39737;43.334;21.936;2023-10-19T03:36:44;0.88;;;0.60;;
53835;SDS011;39737;43.334;21.936;2023-10-19T03:39:32;0.57;;;0.57;;
53835;SDS011;39737;43.334;21.936;2023-10-19T03:42:20;0.77;;;0.77;;
53835;SDS011;39737;43.334;21.936;2023-10-19T03:45:07;0.40;;;0.40;;
53835;SDS011;39737;43.334;21.936;2023-10-19T03:48:02;1.02;;;1.02;;
53835;SDS011;39737;43.334;21.936;2023-10-19T03:50:54;0.73;;;0.73;;
53835;SDS011;39737;43.334;21.936;2023-10-19T03:53:42;0.52;;;0.50;;
53835;SDS011;39737;43.334;21.936;2023-10-19T03:56:34;2.83;;;1.63;;
53835;SDS011;39737;43.334;21.936;2023-10-19T03:59:23;0.73;;;0.73;;
53835;SDS011;39737;43.334;21.936;2023-10-19T04:02:15;0.95;;;0.95;;
53835;SDS011;39737;43.334;21.936;2023-10-19T04:05:03;0.90;;;0.90;;
53835;SDS011;39737;43.334;21.936;2023-10-19T04:07:49;0.82;;;0.82;;
53835;SDS011;39737;43.334;21.936;2023-10-19T04:10:44;0.75;;;0.75;;
53835;SDS011;39737;43.334;21.936;2023-10-19T04:13:30;2.33;;;0.98;;
53835;SDS011;39737;43.334;21.936;2023-10-19T04:16:17;0.82;;;0.82;;
53835;SDS011;39737;43.334;21.936;2023-10-19T04:19:03;0.95;;;0.95;;
53835;SDS011;39737;43.334;21.936;2023-10-19T04:21:50;0.40;;;0.40;;
53835;SDS011;39737;43.334;21.936;2023-10-19T04:24:38;0.90;;;0.90;;
53835;SDS011;39737;43.334;21.936;2023-10-19T04:27:24;0.93;;;0.93;;
53835;SDS011;39737;43.334;21.936;2023-10-19T04:30:11;3.88;;;1.73;;
53835;SDS011;39737;43.334;21.936;2023-10-19T04:33:04;1.95;;;1.85;;
53835;SDS011;39737;43.334;21.936;2023-10-19T04:35:55;0.82;;;0.82;;
53835;SDS011;39737;43.334;21.936;2023-10-19T04:38:41;1.52;;;1.48;;
53835;SDS011;39737;43.334;21.936;2023-10-19T04:41:30;0.95;;;0.95;;
53835;SDS011;39737;43.334;21.936;2023-10-19T04:44:16;1.00;;;1.00;;
53835;SDS011;39737;43.334;21.936;2023-10-19T04:47:02;1.40;;;1.38;;
53835;SDS011;39737;43.334;21.936;2023-10-19T04:49:49;0.70;;;0.70;;
53835;SDS011;39737;43.334;21.936;2023-10-19T04:52:35;0.40;;;0.40;;
53835;SDS011;39737;43.334;21.936;2023-10-19T04:55:22;1.55;;;1.38;;
53835;SDS011;39737;43.334;21.936;2023-10-19T04:58:08;0.85;;;0.85;;
53835;SDS011;39737;43.334;21.936;2023-10-19T05:00:56;0.70;;;0.70;;
53835;SDS011;39737;43.334;21.936;2023-10-19T05:03:44;1.20;;;1.10;;
53835;SDS011;39737;43.334;21.936;2023-10-19T05:06:30;1.75;;;0.95;;
53835;SDS011;39737;43.334;21.936;2023-10-19T05:09:17;0.85;;;0.50;;
53835;SDS011;39737;43.334;21.936;2023-10-19T05:12:04;0.40;;;0.40;;
53835;SDS011;39737;43.334;21.936;2023-10-19T05:14:53;0.65;;;0.65;;
53835;SDS011;39737;43.334;21.936;2023-10-19T05:17:39;0.70;;;0.70;;
53835;SDS011;39737;43.334;21.936;2023-10-19T05:20:25;1.40;;;1.30;;
53835;SDS011;39737;43.334;21.936;2023-10-19T05:23:12;2.10;;;0.75;;
53835;SDS011;39737;43.334;21.936;2023-10-19T05:26:01;1.45;;;1.35;;
53835;SDS011;39737;43.334;21.936;2023-10-19T05:28:48;1.60;;;1.13;;
53835;SDS011;39737;43.334;21.936;2023-10-19T05:31:34;1.60;;;1.52;;
53835;SDS011;39737;43.334;21.936;2023-10-19T05:34:21;1.55;;;0.80;;
53835;SDS011;39737;43.334;21.936;2023-10-19T05:37:07;0.80;;;0.80;;
53835;SDS011;39737;43.334;21.936;2023-10-19T05:39:54;1.15;;;1.05;;
53835;SDS011;39737;43.334;21.936;2023-10-19T05:42:40;0.30;;;0.30;;
53835;SDS011;39737;43.334;21.936;2023-10-19T05:45:27;0.40;;;0.40;;
53835;SDS011;39737;43.334;21.936;2023-10-19T05:48:14;0.45;;;0.45;;
53835;SDS011;39737;43.334;21.936;2023-10-19T05:51:01;0.50;;;0.50;;
53835;SDS011;39737;43.334;21.936;2023-10-19T05:53:48;0.32;;;0.32;;
53835;SDS011;39737;43.334;21.936;2023-10-19T05:56:34;0.55;;;0.55;;
53835;SDS011;39737;43.334;21.936;2023-10-19T05:59:23;0.60;;;0.60;;
53835;SDS011;39737;43.334;21.936;2023-10-19T06:02:12;3.60;;;1.25;;
53835;SDS011;39737;43.334;21.936;2023-10-19T06:04:59;0.40;;;0.40;;
53835;SDS011;39737;43.334;21.936;2023-10-19T06:07:45;0.30;;;0.30;;
53835;SDS011;39737;43.334;21.936;2023-10-19T06:10:32;1.60;;;1.50;;
53835;SDS011;39737;43.334;21.936;2023-10-19T06:13:19;0.95;;;0.95;;
53835;SDS011;39737;43.334;21.936;2023-10-19T06:16:05;0.60;;;0.60;;
53835;SDS011;39737;43.334;21.936;2023-10-19T06:18:51;0.70;;;0.70;;
53835;SDS011;39737;43.334;21.936;2023-10-19T06:21:37;0.50;;;0.50;;
53835;SDS011;39737;43.334;21.936;2023-10-19T06:24:24;0.80;;;0.80;;
53835;SDS011;39737;43.334;21.936;2023-10-19T06:27:10;0.95;;;0.73;;
53835;SDS011;39737;43.334;21.936;2023-10-19T06:29:57;0.70;;;0.70;;
53835;SDS011;39737;43.334;21.936;2023-10-19T06:35:36;1.45;;;0.93;;
53835;SDS011;39737;43.334;21.936;2023-10-19T06:38:23;1.40;;;0.85;;
53835;SDS011;39737;43.334;21.936;2023-10-19T06:41:13;0.60;;;0.60;;
53835;SDS011;39737;43.334;21.936;2023-10-19T06:44:00;0.98;;;0.95;;
53835;SDS011;39737;43.334;21.936;2023-10-19T06:46:47;0.90;;;0.90;;
53835;SDS011;39737;43.334;21.936;2023-10-19T06:49:33;4.05;;;1.42;;
53835;SDS011;39737;43.334;21.936;2023-10-19T06:52:20;0.30;;;0.30;;
53835;SDS011;39737;43.334;21.936;2023-10-19T06:55:06;0.47;;;0.47;;
53835;SDS011;39737;43.334;21.936;2023-10-19T06:58:13;0.52;;;0.52;;
53835;SDS011;39737;43.334;21.936;2023-10-19T07:01:00;0.65;;;0.65;;
53835;SDS011;39737;43.334;21.936;2023-10-19T07:03:53;0.40;;;0.40;;
53835;SDS011;39737;43.334;21.936;2023-10-19T07:06:39;2.03;;;1.90;;
53835;SDS011;39737;43.334;21.936;2023-10-19T07:09:26;1.02;;;1.02;;
53835;SDS011;39737;43.334;21.936;2023-10-19T07:12:13;3.33;;;1.27;;
53835;SDS011;39737;43.334;21.936;2023-10-19T07:15:17;7.30;;;4.50;;
53835;SDS011;39737;43.334;21.936;2023-10-19T07:18:08;0.68;;;0.68;;
53835;SDS011;39737;43.334;21.936;2023-10-19T07:20:58;9.50;;;4.10;;
53835;SDS011;39737;43.334;21.936;2023-10-19T07:23:51;0.30;;;0.30;;
53835;SDS011;39737;43.334;21.936;2023-10-19T07:26:39;1.13;;;1.10;;
53835;SDS011;39737;43.334;21.936;2023-10-19T07:29:46;7.70;;;3.60;;
53835;SDS011;39737;43.334;21.936;2023-10-19T07:32:33;3.65;;;2.92;;
53835;SDS011;39737;43.334;21.936;2023-10-19T07:35:20;7.65;;;4.25;;
53835;SDS011;39737;43.334;21.936;2023-10-19T07:38:06;7.57;;;3.95;;
53835;SDS011;39737;43.334;21.936;2023-10-19T07:40:53;1.35;;;1.25;;
53835;SDS011;39737;43.334;21.936;2023-10-19T07:43:40;5.40;;;3.38;;
53835;SDS011;39737;43.334;21.936;2023-10-19T07:46:26;4.85;;;3.10;;
53835;SDS011;39737;43.334;21.936;2023-10-19T07:49:14;5.95;;;3.28;;
53835;SDS011;39737;43.334;21.936;2023-10-19T07:52:01;5.55;;;2.30;;
53835;SDS011;39737;43.334;21.936;2023-10-19T07:54:47;3.72;;;2.55;;
53835;SDS011;39737;43.334;21.936;2023-10-19T07:57:33;2.80;;;1.77;;
53835;SDS011;39737;43.334;21.936;2023-10-19T08:00:20;3.20;;;2.53;;
53835;SDS011;39737;43.334;21.936;2023-10-19T08:03:06;5.93;;;2.88;;
53835;SDS011;39737;43.334;21.936;2023-10-19T08:05:54;5.43;;;2.80;;
53835;SDS011;39737;43.334;21.936;2023-10-19T08:13:06;5.15;;;2.50;;
53835;SDS011;39737;43.334;21.936;2023-10-19T08:15:53;3.40;;;2.10;;
53835;SDS011;39737;43.334;21.936;2023-10-19T08:18:39;4.40;;;2.35;;
53835;SDS011;39737;43.334;21.936;2023-10-19T08:21:25;3.58;;;1.90;;
53835;SDS011;39737;43.334;21.936;2023-10-19T08:24:14;2.72;;;2.53;;
53835;SDS011;39737;43.334;21.936;2023-10-19T08:27:03;3.22;;;2.25;;
53835;SDS011;39737;43.334;21.936;2023-10-19T08:29:53;3.13;;;2.20;;
53835;SDS011;39737;43.334;21.936;2023-10-19T08:32:39;4.70;;;2.63;;
53835;SDS011;39737;43.334;21.936;2023-10-19T08:35:27;5.35;;;3.05;;
53835;SDS011;39737;43.334;21.936;2023-10-19T08:38:13;2.42;;;2.13;;
53835;SDS011;39737;43.334;21.936;2023-10-19T08:41:00;4.15;;;2.35;;
53835;SDS011;39737;43.334;21.936;2023-10-19T08:43:46;4.75;;;2.25;;
53835;SDS011;39737;43.334;21.936;2023-10-19T08:46:35;4.63;;;2.85;;
53835;SDS011;39737;43.334;21.936;2023-10-19T08:49:24;5.07;;;3.05;;
53835;SDS011;39737;43.334;21.936;2023-10-19T08:52:12;4.15;;;2.22;;
53835;SDS011;39737;43.334;21.936;2023-10-19T08:55:00;2.55;;;2.08;;
53835;SDS011;39737;43.334;21.936;2023-10-19T08:57:48;3.25;;;2.10;;
53835;SDS011;39737;43.334;21.936;2023-10-19T09:00:45;2.33;;;1.85;;
53835;SDS011;39737;43.334;21.936;2023-10-19T09:03:33;3.60;;;1.67;;
53835;SDS011;39737;43.334;21.936;2023-10-19T09:06:21;3.85;;;2.17;;
53835;SDS011;39737;43.334;21.936;2023-10-19T09:09:08;2.60;;;1.35;;
53835;SDS011;39737;43.334;21.936;2023-10-19T09:11:55;2.88;;;2.10;;
53835;SDS011;39737;43.334;21.936;2023-10-19T09:14:41;3.42;;;2.25;;
53835;SDS011;39737;43.334;21.936;2023-10-19T09:17:37;3.50;;;1.77;;
53835;SDS011;39737;43.334;21.936;2023-10-19T09:20:23;3.33;;;1.27;;
53835;SDS011;39737;43.334;21.936;2023-10-19T09:26:01;4.80;;;3.05;;
53835;SDS011;39737;43.334;21.936;2023-10-19T09:28:50;3.08;;;2.05;;
53835;SDS011;39737;43.334;21.936;2023-10-19T09:31:36;2.53;;;1.90;;
53835;SDS011;39737;43.334;21.936;2023-10-19T09:34:23;3.92;;;2.05;;
53835;SDS011;39737;43.334;21.936;2023-10-19T09:37:17;1.98;;;1.52;;
53835;SDS011;39737;43.334;21.936;2023-10-19T09:40:06;3.65;;;2.78;;
53835;SDS011;39737;43.334;21.936;2023-10-19T09:42:58;2.92;;;1.80;;
53835;SDS011;39737;43.334;21.936;2023-10-19T09:45:45;4.38;;;1.88;;
53835;SDS011;39737;43.334;21.936;2023-10-19T09:48:43;4.20;;;2.70;;
53835;SDS011;39737;43.334;21.936;2023-10-19T09:51:32;4.35;;;2.60;;
53835;SDS011;39737;43.334;21.936;2023-10-19T09:54:20;3.83;;;2.15;;
53835;SDS011;39737;43.334;21.936;2023-10-19T09:57:10;3.35;;;1.92;;
53835;SDS011;39737;43.334;21.936;2023-10-19T10:00:06;2.85;;;1.30;;
53835;SDS011;39737;43.334;21.936;2023-10-19T10:06:30;1.73;;;1.35;;
53835;SDS011;39737;43.334;21.936;2023-10-19T10:09:39;1.70;;;1.55;;
53835;SDS011;39737;43.334;21.936;2023-10-19T10:12:29;4.10;;;2.55;;
53835;SDS011;39737;43.334;21.936;2023-10-19T10:15:15;2.00;;;1.65;;
53835;SDS011;39737;43.334;21.936;2023-10-19T10:18:11;8.00;;;2.38;;
53835;SDS011;39737;43.334;21.936;2023-10-19T10:21:05;5.47;;;2.67;;
53835;SDS011;39737;43.334;21.936;2023-10-19T10:23:53;5.10;;;2.55;;
53835;SDS011;39737;43.334;21.936;2023-10-19T10:26:58;2.55;;;1.90;;
53835;SDS011;39737;43.334;21.936;2023-10-19T10:30:20;5.00;;;1.92;;
53835;SDS011;39737;43.334;21.936;2023-10-19T10:33:02;1.27;;;1.10;;
53835;SDS011;39737;43.334;21.936;2023-10-19T10:38:36;1.83;;;1.33;;
53835;SDS011;39737;43.334;21.936;2023-10-19T10:41:23;4.05;;;2.38;;
53835;SDS011;39737;43.334;21.936;2023-10-19T10:44:21;14.35;;;4.95;;
53835;SDS011;39737;43.334;21.936;2023-10-19T10:47:22;2.40;;;1.48;;
53835;SDS011;39737;43.334;21.936;2023-10-19T10:50:11;3.72;;;1.83;;
53835;SDS011;39737;43.334;21.936;2023-10-19T10:52:57;7.25;;;1.92;;
53835;SDS011;39737;43.334;21.936;2023-10-19T10:55:44;2.78;;;1.45;;
53835;SDS011;39737;43.334;21.936;2023-10-19T10:58:30;3.65;;;1.58;;
53835;SDS011;39737;43.334;21.936;2023-10-19T11:01:32;2.28;;;1.50;;
53835;SDS011;39737;43.334;21.936;2023-10-19T11:04:20;2.10;;;1.48;;
53835;SDS011;39737;43.334;21.936;2023-10-19T11:07:07;6.53;;;2.40;;
53835;SDS011;39737;43.334;21.936;2023-10-19T11:10:03;13.73;;;4.15;;
53835;SDS011;39737;43.334;21.936;2023-10-19T11:12:50;6.05;;;2.38;;
53835;SDS011;39737;43.334;21.936;2023-10-19T11:15:37;5.88;;;1.42;;
53835;SDS011;39737;43.334;21.936;2023-10-19T11:18:31;2.03;;;1.63;;
53835;SDS011;39737;43.334;21.936;2023-10-19T11:21:18;5.38;;;1.95;;
53835;SDS011;39737;43.334;21.936;2023-10-19T11:24:05;7.05;;;3.53;;
53835;SDS011;39737;43.334;21.936;2023-10-19T11:26:51;4.05;;;1.67;;
53835;SDS011;39737;43.334;21.936;2023-10-19T11:29:37;5.07;;;2.25;;
53835;SDS011;39737;43.334;21.936;2023-10-19T11:32:25;4.78;;;2.78;;
53835;SDS011;39737;43.334;21.936;2023-10-19T11:35:11;5.75;;;2.47;;
53835;SDS011;39737;43.334;21.936;2023-10-19T11:37:59;9.10;;;3.53;;
53835;SDS011;39737;43.334;21.936;2023-10-19T11:40:46;2.35;;;1.73;;
53835;SDS011;39737;43.334;21.936;2023-10-19T11:43:33;5.50;;;1.55;;
53835;SDS011;39737;43.334;21.936;2023-10-19T11:46:20;4.85;;;2.38;;
53835;SDS011;39737;43.334;21.936;2023-10-19T11:49:11;5.88;;;2.65;;
53835;SDS011;39737;43.334;21.936;2023-10-19T11:51:57;8.57;;;3.22;;
53835;SDS011;39737;43.334;21.936;2023-10-19T11:54:44;11.05;;;2.47;;
53835;SDS011;39737;43.334;21.936;2023-10-19T11:57:31;13.27;;;3.60;;
53835;SDS011;39737;43.334;21.936;2023-10-19T12:00:21;2.80;;;1.60;;
53835;SDS011;39737;43.334;21.936;2023-10-19T12:03:09;3.55;;;2.10;;
53835;SDS011;39737;43.334;21.936;2023-10-19T12:05:56;2.53;;;1.65;;
53835;SDS011;39737;43.334;21.936;2023-10-19T12:08:42;4.57;;;1.90;;
53835;SDS011;39737;43.334;21.936;2023-10-19T12:11:28;2.50;;;1.77;;
53835;SDS011;39737;43.334;21.936;2023-10-19T12:14:16;4.18;;;1.73;;
53835;SDS011;39737;43.334;21.936;2023-10-19T12:17:07;4.00;;;2.27;;
53835;SDS011;39737;43.334;21.936;2023-10-19T12:19:54;4.15;;;3.03;;
53835;SDS011;39737;43.334;21.936;2023-10-19T12:22:41;4.30;;;2.28;;
53835;SDS011;39737;43.334;21.936;2023-10-19T12:25:34;7.80;;;2.88;;
53835;SDS011;39737;43.334;21.936;2023-10-19T12:28:44;2.47;;;1.67;;
53835;SDS011;39737;43.334;21.936;2023-10-19T12:31:35;5.55;;;2.00;;
53835;SDS011;39737;43.334;21.936;2023-10-19T12:34:28;13.85;;;2.63;;
53835;SDS011;39737;43.334;21.936;2023-10-19T12:37:39;4.38;;;2.42;;
53835;SDS011;39737;43.334;21.936;2023-10-19T12:40:32;4.15;;;2.50;;
53835;SDS011;39737;43.334;21.936;2023-10-19T12:43:21;10.52;;;3.42;;
53835;SDS011;39737;43.334;21.936;2023-10-19T12:46:11;5.28;;;3.03;;
53835;SDS011;39737;43.334;21.936;2023-10-19T12:48:59;6.15;;;2.67;;
53835;SDS011;39737;43.334;21.936;2023-10-19T12:51:45;8.35;;;3.58;;
53835;SDS011;39737;43.334;21.936;2023-10-19T12:54:34;8.85;;;2.92;;
53835;SDS011;39737;43.334;21.936;2023-10-19T12:57:23;3.22;;;2.13;;
53835;SDS011;39737;43.334;21.936;2023-10-19T13:00:11;5.65;;;2.50;;
53835;SDS011;39737;43.334;21.936;2023-10-19T13:03:10;2.80;;;1.95;;
53835;SDS011;39737;43.334;21.936;2023-10-19T13:06:00;6.10;;;2.85;;
53835;SDS011;39737;43.334;21.936;2023-10-19T13:08:51;3.30;;;1.80;;
53835;SDS011;39737;43.334;21.936;2023-10-19T13:11:37;2.80;;;1.83;;
53835;SDS011;39737;43.334;21.936;2023-10-19T13:14:25;4.65;;;3.10;;
53835;SDS011;39737;43.334;21.936;2023-10-19T13:17:11;6.78;;;2.72;;
53835;SDS011;39737;43.334;21.936;2023-10-19T13:19:58;4.97;;;2.78;;
53835;SDS011;39737;43.334;21.936;2023-10-19T13:22:52;5.13;;;2.30;;
53835;SDS011;39737;43.334;21.936;2023-10-19T13:25:38;3.90;;;2.22;;
53835;SDS011;39737;43.334;21.936;2023-10-19T13:28:26;6.07;;;2.20;;
53835;SDS011;39737;43.334;21.936;2023-10-19T13:31:13;7.10;;;2.72;;
53835;SDS011;39737;43.334;21.936;2023-10-19T13:36:56;3.42;;;2.15;;
53835;SDS011;39737;43.334;21.936;2023-10-19T13:39:43;7.63;;;2.50;;
53835;SDS011;39737;43.334;21.936;2023-10-19T13:42:30;4.25;;;2.22;;
53835;SDS011;39737;43.334;21.936;2023-10-19T13:45:36;5.35;;;2.40;;
53835;SDS011;39737;43.334;21.936;2023-10-19T13:48:22;4.03;;;2.53;;
53835;SDS011;39737;43.334;21.936;2023-10-19T13:51:09;9.00;;;3.03;;
53835;SDS011;39737;43.334;21.936;2023-10-19T13:53:59;9.63;;;4.45;;
53835;SDS011;39737;43.334;21.936;2023-10-19T14:00:26;5.07;;;2.20;;
53835;SDS011;39737;43.334;21.936;2023-10-19T14:03:25;5.97;;;2.03;;
53835;SDS011;39737;43.334;21.936;2023-10-19T14:06:21;3.60;;;2.53;;
53835;SDS011;39737;43.334;21.936;2023-10-19T14:09:13;7.65;;;3.10;;
53835;SDS011;39737;43.334;21.936;2023-10-19T14:11:59;4.97;;;2.58;;
53835;SDS011;39737;43.334;21.936;2023-10-19T14:14:48;2.65;;;1.58;;
53835;SDS011;39737;43.334;21.936;2023-10-19T14:17:35;3.50;;;1.88;;
53835;SDS011;39737;43.334;21.936;2023-10-19T14:20:22;6.68;;;3.15;;
53835;SDS011;39737;43.334;21.936;2023-10-19T14:23:09;6.25;;;3.75;;
53835;SDS011;39737;43.334;21.936;2023-10-19T14:25:57;8.82;;;3.10;;
53835;SDS011;39737;43.334;21.936;2023-10-19T14:28:45;8.48;;;3.92;;
53835;SDS011;39737;43.334;21.936;2023-10-19T14:31:32;6.57;;;3.90;;
53835;SDS011;39737;43.334;21.936;2023-10-19T14:34:21;7.55;;;1.98;;
53835;SDS011;39737;43.334;21.936;2023-10-19T14:37:07;5.53;;;3.30;;
53835;SDS011;39737;43.334;21.936;2023-10-19T14:39:54;4.90;;;3.03;;
53835;SDS011;39737;43.334;21.936;2023-10-19T14:42:41;14.18;;;4.95;;
53835;SDS011;39737;43.334;21.936;2023-10-19T14:45:28;13.95;;;4.43;;
53835;SDS011;39737;43.334;21.936;2023-10-19T14:48:15;8.00;;;2.70;;
53835;SDS011;39737;43.334;21.936;2023-10-19T14:51:04;5.78;;;3.70;;
53835;SDS011;39737;43.334;21.936;2023-10-19T14:53:52;8.07;;;3.47;;
53835;SDS011;39737;43.334;21.936;2023-10-19T14:56:39;5.03;;;2.08;;
53835;SDS011;39737;43.334;21.936;2023-10-19T14:59:26;8.48;;;3.53;;
53835;SDS011;39737;43.334;21.936;2023-10-19T15:02:15;4.72;;;3.25;;
53835;SDS011;39737;43.334;21.936;2023-10-19T15:05:03;6.43;;;2.97;;
53835;SDS011;39737;43.334;21.936;2023-10-19T15:07:51;8.95;;;3.60;;
53835;SDS011;39737;43.334;21.936;2023-10-19T15:10:41;10.13;;;5.93;;
53835;SDS011;39737;43.334;21.936;2023-10-19T15:13:30;9.70;;;5.20;;
53835;SDS011;39737;43.334;21.936;2023-10-19T15:16:17;22.05;;;5.97;;
53835;SDS011;39737;43.334;21.936;2023-10-19T15:19:04;6.00;;;4.22;;
53835;SDS011;39737;43.334;21.936;2023-10-19T15:21:50;8.52;;;4.35;;
53835;SDS011;39737;43.334;21.936;2023-10-19T15:24:37;9.73;;;4.72;;
53835;SDS011;39737;43.334;21.936;2023-10-19T15:27:23;6.47;;;3.17;;
53835;SDS011;39737;43.334;21.936;2023-10-19T15:30:10;2.25;;;2.05;;
53835;SDS011;39737;43.334;21.936;2023-10-19T15:32:57;10.55;;;5.30;;
53835;SDS011;39737;43.334;21.936;2023-10-19T15:36:02;12.60;;;4.10;;
53835;SDS011;39737;43.334;21.936;2023-10-19T15:38:48;9.13;;;4.90;;
53835;SDS011;39737;43.334;21.936;2023-10-19T15:41:36;15.00;;;4.38;;
53835;SDS011;39737;43.334;21.936;2023-10-19T15:44:22;11.63;;;5.13;;
53835;SDS011;39737;43.334;21.936;2023-10-19T15:47:08;11.60;;;3.83;;
53835;SDS011;39737;43.334;21.936;2023-10-19T15:49:58;5.57;;;2.90;;
53835;SDS011;39737;43.334;21.936;2023-10-19T15:52:45;14.13;;;4.97;;
53835;SDS011;39737;43.334;21.936;2023-10-19T15:55:31;9.57;;;4.75;;
53835;SDS011;39737;43.334;21.936;2023-10-19T15:58:19;7.45;;;3.25;;
53835;SDS011;39737;43.334;21.936;2023-10-19T16:01:08;13.15;;;5.18;;
53835;SDS011;39737;43.334;21.936;2023-10-19T16:03:58;10.05;;;3.30;;
53835;SDS011;39737;43.334;21.936;2023-10-19T16:06:45;7.70;;;4.10;;
53835;SDS011;39737;43.334;21.936;2023-10-19T16:09:34;8.10;;;3.10;;
53835;SDS011;39737;43.334;21.936;2023-10-19T16:12:20;9.20;;;3.67;;
53835;SDS011;39737;43.334;21.936;2023-10-19T16:15:08;15.05;;;6.28;;
53835;SDS011;39737;43.334;21.936;2023-10-19T16:17:54;11.00;;;4.57;;
53835;SDS011;39737;43.334;21.936;2023-10-19T16:20:40;16.63;;;5.95;;
53835;SDS011;39737;43.334;21.936;2023-10-19T16:23:27;9.23;;;4.97;;
53835;SDS011;39737;43.334;21.936;2023-10-19T16:26:13;9.25;;;4.55;;
53835;SDS011;39737;43.334;21.936;2023-10-19T16:29:00;7.72;;;4.70;;
53835;SDS011;39737;43.334;21.936;2023-10-19T16:31:47;10.90;;;4.70;;
53835;SDS011;39737;43.334;21.936;2023-10-19T16:34:34;11.10;;;5.90;;
53835;SDS011;39737;43.334;21.936;2023-10-19T16:37:20;7.93;;;5.22;;
53835;SDS011;39737;43.334;21.936;2023-10-19T16:40:11;11.35;;;5.03;;
53835;SDS011;39737;43.334;21.936;2023-10-19T16:43:00;8.98;;;5.38;;
53835;SDS011;39737;43.334;21.936;2023-10-19T16:45:47;11.73;;;5.65;;
53835;SDS011;39737;43.334;21.936;2023-10-19T16:48:35;15.23;;;6.40;;
53835;SDS011;39737;43.334;21.936;2023-10-19T16:51:23;12.95;;;6.18;;
53835;SDS011;39737;43.334;21.936;2023-10-19T16:54:09;13.68;;;7.75;;
53835;SDS011;39737;43.334;21.936;2023-10-19T16:56:56;25.38;;;12.25;;
53835;SDS011;39737;43.334;21.936;2023-10-19T16:59:42;36.10;;;15.65;;
53835;SDS011;39737;43.334;21.936;2023-10-19T17:02:28;27.90;;;11.30;;
53835;SDS011;39737;43.334;21.936;2023-10-19T17:05:18;23.83;;;9.68;;